sensor_id;sensor_type;location;lat;lon;timestamp;pressure;altitude;pressure_sealevel;temperature;humidity
216;BME280;64590;48.81286795;9.14184224;2023-01-08T00:01:59;97739.22;;;8.02;70.58
216;BME280;64590;48.81286795;9.14184224;2023-01-08T00:04:28;97729.50;;;7.46;71.72
216;BME280;64590;48.81286795;9.14184224;2023-01-08T00:06:54;97712.47;;;7.29;72.29
216;BME280;64590;48.81286795;9.14184224;2023-01-08T00:09:21;97703.34;;;7.18;72.94
216;BME280;64590;48.81286795;9.14184224;2023-01-08T00:11:47;97707.72;;;7.23;73.05
216;BME280;64590;48.81286795;9.14184224;2023-01-08T00:14:14;97699.91;;;7.39;72.26
216;BME280;64590;48.81286795;9.14184224;2023-01-08T00:16:40;97699.94;;;7.50;72.07
216;BME280;64590;48.81286795;9.14184224;2023-01-08T00:19:07;97687.28;;;7.42;72.67
216;BME280;64590;48.81286795;9.14184224;2023-01-08T00:21:35;97699.25;;;7.74;71.84
216;BME280;64590;48.81286795;9.14184224;2023-01-08T00:24:02;97706.72;;;7.70;71.98
216;BME280;64590;48.81286795;9.14184224;2023-01-08T00:26:29;97702.75;;;7.57;72.79
216;BME280;64590;48.81286795;9.14184224;2023-01-08T00:28:56;97692.84;;;7.52;71.92
216;BME280;64590;48.81286795;9.14184224;2023-01-08T00:31:23;97693.69;;;7.60;72.00
216;BME280;64590;48.81286795;9.14184224;2023-01-08T00:33:49;97697.63;;;7.59;71.57
216;BME280;64590;48.81286795;9.14184224;2023-01-08T00:36:17;97694.09;;;7.73;71.13
216;BME280;64590;48.81286795;9.14184224;2023-01-08T00:38:46;97687.38;;;7.56;71.64
216;BME280;64590;48.81286795;9.14184224;2023-01-08T00:41:13;97669.94;;;7.45;72.01
216;BME280;64590;48.81286795;9.14184224;2023-01-08T00:43:40;97669.19;;;7.48;72.35
216;BME280;64590;48.81286795;9.14184224;2023-01-08T00:46:07;97660.31;;;7.10;73.57
216;BME280;64590;48.81286795;9.14184224;2023-01-08T00:48:34;97657.78;;;7.63;71.85
216;BME280;64590;48.81286795;9.14184224;2023-01-08T00:51:03;97654.84;;;7.21;73.28
216;BME280;64590;48.81286795;9.14184224;2023-01-08T00:53:30;97658.44;;;7.28;72.97
216;BME280;64590;48.81286795;9.14184224;2023-01-08T00:56:03;97653.25;;;7.20;73.42
216;BME280;64590;48.81286795;9.14184224;2023-01-08T00:58:30;97653.34;;;7.37;73.13
216;BME280;64590;48.81286795;9.14184224;2023-01-08T01:00:56;97659.25;;;7.36;73.58
216;BME280;64590;48.81286795;9.14184224;2023-01-08T01:03:23;97654.53;;;7.33;73.48
216;BME280;64590;48.81286795;9.14184224;2023-01-08T01:05:58;97653.25;;;7.13;73.62
216;BME280;64590;48.81286795;9.14184224;2023-01-08T01:08:25;97639.09;;;7.21;73.97
216;BME280;64590;48.81286795;9.14184224;2023-01-08T01:10:52;97645.13;;;7.48;72.93
216;BME280;64590;48.81286795;9.14184224;2023-01-08T01:13:19;97638.38;;;7.42;73.17
216;BME280;64590;48.81286795;9.14184224;2023-01-08T01:15:55;97641.47;;;7.26;73.60
216;BME280;64590;48.81286795;9.14184224;2023-01-08T01:18:22;97646.28;;;7.40;73.07
216;BME280;64590;48.81286795;9.14184224;2023-01-08T01:20:48;97639.44;;;7.13;73.95
216;BME280;64590;48.81286795;9.14184224;2023-01-08T01:23:15;97637.91;;;7.26;73.80
216;BME280;64590;48.81286795;9.14184224;2023-01-08T01:25:42;97643.41;;;7.15;73.83
216;BME280;64590;48.81286795;9.14184224;2023-01-08T01:28:08;97651.28;;;7.20;73.98
216;BME280;64590;48.81286795;9.14184224;2023-01-08T01:30:36;97648.25;;;7.43;72.91
216;BME280;64590;48.81286795;9.14184224;2023-01-08T01:33:03;97630.88;;;7.46;72.37
216;BME280;64590;48.81286795;9.14184224;2023-01-08T01:35:29;97628.53;;;7.45;72.20
216;BME280;64590;48.81286795;9.14184224;2023-01-08T01:37:56;97641.16;;;7.42;72.78
216;BME280;64590;48.81286795;9.14184224;2023-01-08T01:40:23;97637.19;;;7.40;72.82
216;BME280;64590;48.81286795;9.14184224;2023-01-08T01:42:49;97649.44;;;7.39;72.87
216;BME280;64590;48.81286795;9.14184224;2023-01-08T01:45:18;97651.41;;;7.42;73.28
216;BME280;64590;48.81286795;9.14184224;2023-01-08T01:47:51;97660.78;;;7.26;73.90
216;BME280;64590;48.81286795;9.14184224;2023-01-08T01:50:21;97665.06;;;7.13;74.20
216;BME280;64590;48.81286795;9.14184224;2023-01-08T01:52:56;97655.00;;;7.60;72.47
216;BME280;64590;48.81286795;9.14184224;2023-01-08T01:55:26;97653.69;;;7.29;74.06
216;BME280;64590;48.81286795;9.14184224;2023-01-08T01:57:58;97641.53;;;7.44;72.86
216;BME280;64590;48.81286795;9.14184224;2023-01-08T02:00:27;97645.50;;;7.54;72.91
216;BME280;64590;48.81286795;9.14184224;2023-01-08T02:02:56;97646.38;;;7.79;71.68
216;BME280;64590;48.81286795;9.14184224;2023-01-08T02:05:25;97634.94;;;7.81;71.74
216;BME280;64590;48.81286795;9.14184224;2023-01-08T02:07:59;97633.72;;;7.64;72.54
216;BME280;64590;48.81286795;9.14184224;2023-01-08T02:10:34;97627.03;;;7.76;72.78
216;BME280;64590;48.81286795;9.14184224;2023-01-08T02:13:05;97632.63;;;8.01;71.43
216;BME280;64590;48.81286795;9.14184224;2023-01-08T02:15:41;97632.63;;;8.01;70.56
216;BME280;64590;48.81286795;9.14184224;2023-01-08T02:18:17;97626.28;;;7.86;71.35
216;BME280;64590;48.81286795;9.14184224;2023-01-08T02:20:46;97630.63;;;8.01;71.14
216;BME280;64590;48.81286795;9.14184224;2023-01-08T02:23:25;97614.44;;;8.07;70.83
216;BME280;64590;48.81286795;9.14184224;2023-01-08T02:26:13;97613.66;;;8.13;70.87
216;BME280;64590;48.81286795;9.14184224;2023-01-08T02:28:45;97610.50;;;8.01;71.25
216;BME280;64590;48.81286795;9.14184224;2023-01-08T02:31:15;97604.97;;;8.08;70.62
216;BME280;64590;48.81286795;9.14184224;2023-01-08T02:33:43;97606.94;;;8.04;71.02
216;BME280;64590;48.81286795;9.14184224;2023-01-08T02:36:21;97587.19;;;7.84;71.36
216;BME280;64590;48.81286795;9.14184224;2023-01-08T02:38:56;97598.25;;;7.73;71.92
216;BME280;64590;48.81286795;9.14184224;2023-01-08T02:41:36;97594.28;;;7.74;72.40
216;BME280;64590;48.81286795;9.14184224;2023-01-08T02:44:04;97587.56;;;7.79;72.11
216;BME280;64590;48.81286795;9.14184224;2023-01-08T02:46:33;97580.09;;;8.04;70.84
216;BME280;64590;48.81286795;9.14184224;2023-01-08T02:49:03;97571.81;;;7.86;72.01
216;BME280;64590;48.81286795;9.14184224;2023-01-08T02:51:37;97577.72;;;8.06;71.14
216;BME280;64590;48.81286795;9.14184224;2023-01-08T02:54:09;97563.13;;;7.88;72.29
216;BME280;64590;48.81286795;9.14184224;2023-01-08T02:56:41;97565.88;;;7.88;71.92
216;BME280;64590;48.81286795;9.14184224;2023-01-08T02:59:10;97557.19;;;7.64;72.93
216;BME280;64590;48.81286795;9.14184224;2023-01-08T03:01:38;97561.53;;;7.87;72.22
216;BME280;64590;48.81286795;9.14184224;2023-01-08T03:04:10;97559.19;;;7.82;72.41
216;BME280;64590;48.81286795;9.14184224;2023-01-08T03:06:39;97558.38;;;7.67;73.10
216;BME280;64590;48.81286795;9.14184224;2023-01-08T03:09:06;97553.25;;;7.76;72.87
216;BME280;64590;48.81286795;9.14184224;2023-01-08T03:11:38;97543.38;;;7.72;72.02
216;BME280;64590;48.81286795;9.14184224;2023-01-08T03:14:09;97553.25;;;7.87;72.21
216;BME280;64590;48.81286795;9.14184224;2023-01-08T03:16:41;97548.53;;;8.09;71.57
216;BME280;64590;48.81286795;9.14184224;2023-01-08T03:19:15;97545.75;;;7.87;73.01
216;BME280;64590;48.81286795;9.14184224;2023-01-08T03:21:43;97546.91;;;7.58;72.96
216;BME280;64590;48.81286795;9.14184224;2023-01-08T03:24:14;97543.78;;;7.88;72.27
216;BME280;64590;48.81286795;9.14184224;2023-01-08T03:26:45;97534.28;;;8.14;70.85
216;BME280;64590;48.81286795;9.14184224;2023-01-08T03:29:16;97538.63;;;7.72;72.31
216;BME280;64590;48.81286795;9.14184224;2023-01-08T03:31:45;97533.91;;;7.80;72.45
216;BME280;64590;48.81286795;9.14184224;2023-01-08T03:34:13;97527.59;;;7.93;71.50
216;BME280;64590;48.81286795;9.14184224;2023-01-08T03:36:45;97526.81;;;7.97;71.63
216;BME280;64590;48.81286795;9.14184224;2023-01-08T03:39:16;97525.63;;;7.87;72.46
216;BME280;64590;48.81286795;9.14184224;2023-01-08T03:41:46;97518.91;;;7.99;71.87
216;BME280;64590;48.81286795;9.14184224;2023-01-08T03:44:14;97514.97;;;7.82;72.84
216;BME280;64590;48.81286795;9.14184224;2023-01-08T03:46:44;97511.41;;;7.78;72.84
216;BME280;64590;48.81286795;9.14184224;2023-01-08T03:49:13;97512.19;;;7.78;73.32
216;BME280;64590;48.81286795;9.14184224;2023-01-08T03:51:41;97510.22;;;8.00;72.49
216;BME280;64590;48.81286795;9.14184224;2023-01-08T03:54:10;97512.19;;;8.07;71.99
216;BME280;64590;48.81286795;9.14184224;2023-01-08T03:56:38;97518.13;;;7.94;71.67
216;BME280;64590;48.81286795;9.14184224;2023-01-08T03:59:06;97511.78;;;8.12;71.72
216;BME280;64590;48.81286795;9.14184224;2023-01-08T04:01:33;97498.75;;;8.27;70.51
216;BME280;64590;48.81286795;9.14184224;2023-01-08T04:03:59;97505.44;;;8.29;70.29
216;BME280;64590;48.81286795;9.14184224;2023-01-08T04:06:26;97485.69;;;8.23;70.44
216;BME280;64590;48.81286795;9.14184224;2023-01-08T04:08:52;97497.16;;;8.08;71.20
216;BME280;64590;48.81286795;9.14184224;2023-01-08T04:11:20;97502.31;;;7.99;71.59
216;BME280;64590;48.81286795;9.14184224;2023-01-08T04:13:47;97501.16;;;7.92;72.55
216;BME280;64590;48.81286795;9.14184224;2023-01-08T04:16:16;97475.88;;;7.73;72.88
216;BME280;64590;48.81286795;9.14184224;2023-01-08T04:18:42;97487.72;;;7.87;73.16
216;BME280;64590;48.81286795;9.14184224;2023-01-08T04:21:09;97478.66;;;7.76;72.92
216;BME280;64590;48.81286795;9.14184224;2023-01-08T04:23:36;97482.59;;;7.79;72.47
216;BME280;64590;48.81286795;9.14184224;2023-01-08T04:26:03;97489.69;;;7.80;73.34
216;BME280;64590;48.81286795;9.14184224;2023-01-08T04:28:30;97495.22;;;8.05;71.66
216;BME280;64590;48.81286795;9.14184224;2023-01-08T04:30:56;97490.91;;;7.82;72.55
216;BME280;64590;48.81286795;9.14184224;2023-01-08T04:33:24;97491.66;;;8.08;71.84
216;BME280;64590;48.81286795;9.14184224;2023-01-08T04:35:51;97495.19;;;8.15;70.74
216;BME280;64590;48.81286795;9.14184224;2023-01-08T04:38:17;97497.16;;;8.43;67.93
216;BME280;64590;48.81286795;9.14184224;2023-01-08T04:40:44;97489.88;;;8.85;65.16
216;BME280;64590;48.81286795;9.14184224;2023-01-08T04:43:10;97494.16;;;9.00;65.06
216;BME280;64590;48.81286795;9.14184224;2023-01-08T04:45:37;97501.56;;;9.25;63.72
216;BME280;64590;48.81286795;9.14184224;2023-01-08T04:48:04;97505.47;;;9.34;63.43
216;BME280;64590;48.81286795;9.14184224;2023-01-08T04:50:32;97496.66;;;9.50;62.80
216;BME280;64590;48.81286795;9.14184224;2023-01-08T04:52:58;97510.50;;;9.47;62.68
216;BME280;64590;48.81286795;9.14184224;2023-01-08T04:55:25;97512.44;;;9.53;62.51
216;BME280;64590;48.81286795;9.14184224;2023-01-08T04:57:52;97503.75;;;9.51;62.72
216;BME280;64590;48.81286795;9.14184224;2023-01-08T05:00:18;97502.56;;;9.56;62.25
216;BME280;64590;48.81286795;9.14184224;2023-01-08T05:02:45;97499.38;;;9.57;62.58
216;BME280;64590;48.81286795;9.14184224;2023-01-08T05:05:11;97505.25;;;9.63;62.86
216;BME280;64590;48.81286795;9.14184224;2023-01-08T05:07:39;97502.94;;;9.58;63.02
216;BME280;64590;48.81286795;9.14184224;2023-01-08T05:10:07;97510.38;;;9.68;62.96
216;BME280;64590;48.81286795;9.14184224;2023-01-08T05:12:34;97509.63;;;9.60;63.84
216;BME280;64590;48.81286795;9.14184224;2023-01-08T05:15:00;97498.56;;;9.60;64.14
216;BME280;64590;48.81286795;9.14184224;2023-01-08T05:17:27;97519.59;;;9.51;65.65
216;BME280;64590;48.81286795;9.14184224;2023-01-08T05:19:53;97523.56;;;9.50;65.81
216;BME280;64590;48.81286795;9.14184224;2023-01-08T05:22:20;97514.78;;;9.62;65.65
216;BME280;64590;48.81286795;9.14184224;2023-01-08T05:24:48;97526.63;;;9.62;65.97
216;BME280;64590;48.81286795;9.14184224;2023-01-08T05:27:14;97514.47;;;9.46;66.91
216;BME280;64590;48.81286795;9.14184224;2023-01-08T05:29:41;97525.84;;;9.66;65.77
216;BME280;64590;48.81286795;9.14184224;2023-01-08T05:32:13;97509.97;;;9.70;65.78
216;BME280;64590;48.81286795;9.14184224;2023-01-08T05:34:40;97507.25;;;9.66;66.17
216;BME280;64590;48.81286795;9.14184224;2023-01-08T05:37:06;97506.13;;;9.56;67.27
216;BME280;64590;48.81286795;9.14184224;2023-01-08T05:39:33;97500.56;;;9.56;67.35
216;BME280;64590;48.81286795;9.14184224;2023-01-08T05:42:01;97509.28;;;9.55;67.35
216;BME280;64590;48.81286795;9.14184224;2023-01-08T05:44:27;97501.38;;;9.57;67.68
216;BME280;64590;48.81286795;9.14184224;2023-01-08T05:46:54;97497.84;;;9.49;68.31
216;BME280;64590;48.81286795;9.14184224;2023-01-08T05:49:21;97502.16;;;9.54;68.80
216;BME280;64590;48.81286795;9.14184224;2023-01-08T05:51:48;97503.75;;;9.51;69.13
216;BME280;64590;48.81286795;9.14184224;2023-01-08T05:54:15;97508.94;;;9.49;69.59
216;BME280;64590;48.81286795;9.14184224;2023-01-08T05:56:42;97508.56;;;9.47;70.57
216;BME280;64590;48.81286795;9.14184224;2023-01-08T05:59:11;97501.50;;;9.35;70.89
216;BME280;64590;48.81286795;9.14184224;2023-01-08T06:01:38;97502.66;;;9.38;70.59
216;BME280;64590;48.81286795;9.14184224;2023-01-08T06:04:04;97498.72;;;9.39;72.10
216;BME280;64590;48.81286795;9.14184224;2023-01-08T06:06:31;97499.09;;;9.38;71.99
216;BME280;64590;48.81286795;9.14184224;2023-01-08T06:08:57;97508.22;;;9.34;72.38
216;BME280;64590;48.81286795;9.14184224;2023-01-08T06:11:24;97514.19;;;9.29;72.78
216;BME280;64590;48.81286795;9.14184224;2023-01-08T06:13:50;97502.72;;;9.31;73.21
216;BME280;64590;48.81286795;9.14184224;2023-01-08T06:16:19;97485.69;;;9.32;71.46
216;BME280;64590;48.81286795;9.14184224;2023-01-08T06:18:46;97490.03;;;9.33;72.56
216;BME280;64590;48.81286795;9.14184224;2023-01-08T06:21:12;97499.94;;;9.31;72.58
216;BME280;64590;48.81286795;9.14184224;2023-01-08T06:23:39;97493.63;;;9.27;72.63
216;BME280;64590;48.81286795;9.14184224;2023-01-08T06:26:06;97483.69;;;9.37;71.62
216;BME280;64590;48.81286795;9.14184224;2023-01-08T06:28:33;97483.66;;;9.40;71.44
216;BME280;64590;48.81286795;9.14184224;2023-01-08T06:31:01;97486.03;;;9.38;71.54
216;BME280;64590;48.81286795;9.14184224;2023-01-08T06:33:29;97471.34;;;9.45;70.62
216;BME280;64590;48.81286795;9.14184224;2023-01-08T06:35:59;97470.16;;;9.46;70.76
216;BME280;64590;48.81286795;9.14184224;2023-01-08T06:38:26;97473.25;;;9.55;71.13
216;BME280;64590;48.81286795;9.14184224;2023-01-08T06:40:52;97466.94;;;9.54;69.31
216;BME280;64590;48.81286795;9.14184224;2023-01-08T06:43:19;97460.56;;;9.61;69.80
216;BME280;64590;48.81286795;9.14184224;2023-01-08T06:45:52;97456.16;;;9.63;69.17
216;BME280;64590;48.81286795;9.14184224;2023-01-08T06:48:19;97467.66;;;9.62;69.37
216;BME280;64590;48.81286795;9.14184224;2023-01-08T06:50:46;97472.31;;;9.76;68.03
216;BME280;64590;48.81286795;9.14184224;2023-01-08T06:53:13;97465.25;;;9.68;69.19
216;BME280;64590;48.81286795;9.14184224;2023-01-08T06:55:40;97465.25;;;9.68;69.36
216;BME280;64590;48.81286795;9.14184224;2023-01-08T06:58:06;97471.91;;;9.77;69.02
216;BME280;64590;48.81286795;9.14184224;2023-01-08T07:00:33;97478.28;;;9.71;69.47
216;BME280;64590;48.81286795;9.14184224;2023-01-08T07:02:59;97469.97;;;9.71;68.89
216;BME280;64590;48.81286795;9.14184224;2023-01-08T07:05:26;97465.66;;;9.66;69.96
216;BME280;64590;48.81286795;9.14184224;2023-01-08T07:07:54;97471.53;;;9.72;69.04
216;BME280;64590;48.81286795;9.14184224;2023-01-08T07:10:21;97474.31;;;9.72;70.04
216;BME280;64590;48.81286795;9.14184224;2023-01-08T07:12:48;97466.13;;;9.57;70.61
216;BME280;64590;48.81286795;9.14184224;2023-01-08T07:15:14;97469.63;;;9.65;69.50
216;BME280;64590;48.81286795;9.14184224;2023-01-08T07:17:41;97473.63;;;9.60;69.85
216;BME280;64590;48.81286795;9.14184224;2023-01-08T07:20:08;97470.03;;;9.63;69.21
216;BME280;64590;48.81286795;9.14184224;2023-01-08T07:22:35;97474.00;;;9.62;69.55
216;BME280;64590;48.81286795;9.14184224;2023-01-08T07:25:03;97470.81;;;9.64;69.05
216;BME280;64590;48.81286795;9.14184224;2023-01-08T07:27:30;97478.41;;;9.56;69.68
216;BME280;64590;48.81286795;9.14184224;2023-01-08T07:29:57;97480.06;;;9.43;71.16
216;BME280;64590;48.81286795;9.14184224;2023-01-08T07:32:23;97477.25;;;9.50;71.46
216;BME280;64590;48.81286795;9.14184224;2023-01-08T07:34:50;97483.66;;;9.40;73.21
216;BME280;64590;48.81286795;9.14184224;2023-01-08T07:37:18;97490.81;;;9.34;72.71
216;BME280;64590;48.81286795;9.14184224;2023-01-08T07:39:45;97491.31;;;9.22;73.68
216;BME280;64590;48.81286795;9.14184224;2023-01-08T07:42:13;97481.78;;;9.23;74.06
216;BME280;64590;48.81286795;9.14184224;2023-01-08T07:44:39;97494.41;;;9.31;73.72
216;BME280;64590;48.81286795;9.14184224;2023-01-08T07:47:06;97477.38;;;9.29;73.88
216;BME280;64590;48.81286795;9.14184224;2023-01-08T07:49:32;97479.38;;;9.28;74.82
216;BME280;64590;48.81286795;9.14184224;2023-01-08T07:51:59;97487.75;;;9.21;74.46
216;BME280;64590;48.81286795;9.14184224;2023-01-08T07:54:25;97486.56;;;9.22;75.28
216;BME280;64590;48.81286795;9.14184224;2023-01-08T07:56:53;97491.31;;;9.18;75.71
216;BME280;64590;48.81286795;9.14184224;2023-01-08T07:59:21;97483.03;;;9.15;75.61
216;BME280;64590;48.81286795;9.14184224;2023-01-08T08:01:47;97477.13;;;9.09;75.71
216;BME280;64590;48.81286795;9.14184224;2023-01-08T08:04:14;97474.75;;;9.07;77.07
216;BME280;64590;48.81286795;9.14184224;2023-01-08T08:06:40;97475.50;;;9.12;75.98
216;BME280;64590;48.81286795;9.14184224;2023-01-08T08:09:07;97479.06;;;9.16;76.12
216;BME280;64590;48.81286795;9.14184224;2023-01-08T08:11:34;97485.81;;;9.11;76.57
216;BME280;64590;48.81286795;9.14184224;2023-01-08T08:14:02;97481.03;;;9.15;76.68
216;BME280;64590;48.81286795;9.14184224;2023-01-08T08:16:30;97473.94;;;9.11;76.19
216;BME280;64590;48.81286795;9.14184224;2023-01-08T08:18:57;97472.03;;;9.00;77.40
216;BME280;64590;48.81286795;9.14184224;2023-01-08T08:21:24;97483.03;;;9.15;77.49
216;BME280;64590;48.81286795;9.14184224;2023-01-08T08:23:50;97483.81;;;9.12;77.77
216;BME280;64590;48.81286795;9.14184224;2023-01-08T08:26:17;97477.47;;;9.18;77.86
216;BME280;64590;48.81286795;9.14184224;2023-01-08T08:28:44;97478.25;;;9.22;76.57
216;BME280;64590;48.81286795;9.14184224;2023-01-08T08:31:10;97473.38;;;9.37;76.36
216;BME280;64590;48.81286795;9.14184224;2023-01-08T08:33:38;97466.00;;;9.16;76.03
216;BME280;64590;48.81286795;9.14184224;2023-01-08T08:36:06;97472.38;;;9.10;76.88
216;BME280;64590;48.81286795;9.14184224;2023-01-08T08:38:32;97470.06;;;8.97;76.91
216;BME280;64590;48.81286795;9.14184224;2023-01-08T08:40:59;97468.09;;;8.94;78.19
216;BME280;64590;48.81286795;9.14184224;2023-01-08T08:43:26;97453.06;;;8.99;77.93
216;BME280;64590;48.81286795;9.14184224;2023-01-08T08:45:54;97469.22;;;9.07;76.78
216;BME280;64590;48.81286795;9.14184224;2023-01-08T08:48:20;97452.63;;;9.07;77.45
216;BME280;64590;48.81286795;9.14184224;2023-01-08T08:50:48;97455.69;;;9.20;76.87
216;BME280;64590;48.81286795;9.14184224;2023-01-08T08:53:15;97452.94;;;9.17;76.90
216;BME280;64590;48.81286795;9.14184224;2023-01-08T08:55:41;97455.31;;;9.18;77.08
216;BME280;64590;48.81286795;9.14184224;2023-01-08T08:58:10;97444.28;;;9.15;77.13
216;BME280;64590;48.81286795;9.14184224;2023-01-08T09:00:37;97447.03;;;9.11;77.55
216;BME280;64590;48.81286795;9.14184224;2023-01-08T09:03:04;97454.16;;;9.16;76.49
216;BME280;64590;48.81286795;9.14184224;2023-01-08T09:05:34;97449.78;;;9.18;75.93
216;BME280;64590;48.81286795;9.14184224;2023-01-08T09:08:02;97455.72;;;9.17;76.31
216;BME280;64590;48.81286795;9.14184224;2023-01-08T09:10:28;97449.78;;;9.22;76.33
216;BME280;64590;48.81286795;9.14184224;2023-01-08T09:12:55;97445.03;;;9.19;76.98
216;BME280;64590;48.81286795;9.14184224;2023-01-08T09:15:22;97451.66;;;9.32;76.20
216;BME280;64590;48.81286795;9.14184224;2023-01-08T09:17:52;97446.91;;;9.32;76.47
216;BME280;64590;48.81286795;9.14184224;2023-01-08T09:20:18;97449.19;;;9.45;76.23
216;BME280;64590;48.81286795;9.14184224;2023-01-08T09:22:45;97444.03;;;9.50;74.93
216;BME280;64590;48.81286795;9.14184224;2023-01-08T09:25:13;97450.81;;;9.42;75.99
216;BME280;64590;48.81286795;9.14184224;2023-01-08T09:27:39;97454.31;;;9.46;74.94
216;BME280;64590;48.81286795;9.14184224;2023-01-08T09:30:07;97457.50;;;9.48;74.19
216;BME280;64590;48.81286795;9.14184224;2023-01-08T09:32:34;97456.34;;;9.42;74.98
216;BME280;64590;48.81286795;9.14184224;2023-01-08T09:35:00;97451.97;;;9.45;75.62
216;BME280;64590;48.81286795;9.14184224;2023-01-08T09:37:27;97456.34;;;9.42;74.62
216;BME280;64590;48.81286795;9.14184224;2023-01-08T09:39:53;97452.69;;;9.56;74.12
216;BME280;64590;48.81286795;9.14184224;2023-01-08T09:42:23;97462.25;;;9.48;73.96
216;BME280;64590;48.81286795;9.14184224;2023-01-08T09:44:52;97459.56;;;9.33;74.70
216;BME280;64590;48.81286795;9.14184224;2023-01-08T09:47:23;97455.94;;;9.44;74.52
216;BME280;64590;48.81286795;9.14184224;2023-01-08T09:49:54;97456.31;;;9.46;73.49
216;BME280;64590;48.81286795;9.14184224;2023-01-08T09:52:22;97459.13;;;9.42;74.11
216;BME280;64590;48.81286795;9.14184224;2023-01-08T09:54:49;97449.41;;;9.68;72.39
216;BME280;64590;48.81286795;9.14184224;2023-01-08T09:57:17;97453.88;;;9.55;73.77
216;BME280;64590;48.81286795;9.14184224;2023-01-08T09:59:46;97455.09;;;9.50;72.81
216;BME280;64590;48.81286795;9.14184224;2023-01-08T10:02:15;97454.31;;;9.46;73.76
216;BME280;64590;48.81286795;9.14184224;2023-01-08T10:04:42;97463.38;;;9.57;71.99
216;BME280;64590;48.81286795;9.14184224;2023-01-08T10:07:14;97455.47;;;9.52;72.40
216;BME280;64590;48.81286795;9.14184224;2023-01-08T10:09:43;97472.09;;;9.56;73.25
216;BME280;64590;48.81286795;9.14184224;2023-01-08T10:12:10;97466.88;;;9.65;72.48
216;BME280;64590;48.81286795;9.14184224;2023-01-08T10:14:39;97470.81;;;9.68;71.92
216;BME280;64590;48.81286795;9.14184224;2023-01-08T10:17:19;97463.75;;;9.59;72.33
216;BME280;64590;48.81286795;9.14184224;2023-01-08T10:19:49;97465.28;;;9.64;71.59
216;BME280;64590;48.81286795;9.14184224;2023-01-08T10:22:18;97463.56;;;9.81;72.26
216;BME280;64590;48.81286795;9.14184224;2023-01-08T10:24:45;97458.06;;;9.77;71.95
216;BME280;64590;48.81286795;9.14184224;2023-01-08T10:27:14;97452.94;;;9.72;71.79
216;BME280;64590;48.81286795;9.14184224;2023-01-08T10:29:41;97458.47;;;9.72;72.14
216;BME280;64590;48.81286795;9.14184224;2023-01-08T10:32:13;97450.56;;;9.74;72.39
216;BME280;64590;48.81286795;9.14184224;2023-01-08T10:34:43;97449.31;;;9.79;72.28
216;BME280;64590;48.81286795;9.14184224;2023-01-08T10:37:21;97442.88;;;9.89;71.83
216;BME280;64590;48.81286795;9.14184224;2023-01-08T10:39:49;97436.97;;;9.87;72.22
216;BME280;64590;48.81286795;9.14184224;2023-01-08T10:42:18;97439.31;;;9.92;72.61
216;BME280;64590;48.81286795;9.14184224;2023-01-08T10:44:52;97434.56;;;9.89;71.92
216;BME280;64590;48.81286795;9.14184224;2023-01-08T10:47:21;97421.50;;;9.89;72.08
216;BME280;64590;48.81286795;9.14184224;2023-01-08T10:49:50;97432.28;;;9.80;71.43
216;BME280;64590;48.81286795;9.14184224;2023-01-08T10:52:25;97419.63;;;9.79;72.60
216;BME280;64590;48.81286795;9.14184224;2023-01-08T10:54:52;97419.97;;;9.85;71.40
216;BME280;64590;48.81286795;9.14184224;2023-01-08T10:57:21;97421.91;;;9.88;71.86
216;BME280;64590;48.81286795;9.14184224;2023-01-08T10:59:48;97425.88;;;9.87;71.18
216;BME280;64590;48.81286795;9.14184224;2023-01-08T11:02:20;97427.03;;;9.89;71.80
216;BME280;64590;48.81286795;9.14184224;2023-01-08T11:04:51;97421.91;;;9.91;72.05
216;BME280;64590;48.81286795;9.14184224;2023-01-08T11:07:19;97426.88;;;10.07;71.48
216;BME280;64590;48.81286795;9.14184224;2023-01-08T11:09:48;97409.75;;;10.16;70.38
216;BME280;64590;48.81286795;9.14184224;2023-01-08T11:12:31;97418.81;;;10.24;70.60
216;BME280;64590;48.81286795;9.14184224;2023-01-08T11:15:00;97415.72;;;10.14;71.06
216;BME280;64590;48.81286795;9.14184224;2023-01-08T11:17:28;97408.41;;;10.35;71.16
216;BME280;64590;48.81286795;9.14184224;2023-01-08T11:20:05;97406.44;;;10.32;70.17
216;BME280;64590;48.81286795;9.14184224;2023-01-08T11:22:32;97396.97;;;10.29;70.86
216;BME280;64590;48.81286795;9.14184224;2023-01-08T11:24:59;97394.19;;;10.29;70.81
216;BME280;64590;48.81286795;9.14184224;2023-01-08T11:27:27;97387.41;;;10.34;70.07
216;BME280;64590;48.81286795;9.14184224;2023-01-08T11:29:59;97397.19;;;10.42;70.99
216;BME280;64590;48.81286795;9.14184224;2023-01-08T11:32:40;97390.97;;;10.34;69.85
216;BME280;64590;48.81286795;9.14184224;2023-01-08T11:35:12;97391.28;;;10.40;71.71
216;BME280;64590;48.81286795;9.14184224;2023-01-08T11:37:42;97384.53;;;10.41;69.70
216;BME280;64590;48.81286795;9.14184224;2023-01-08T11:40:13;97378.88;;;10.52;70.08
216;BME280;64590;48.81286795;9.14184224;2023-01-08T11:42:52;97369.94;;;10.67;68.98
216;BME280;64590;48.81286795;9.14184224;2023-01-08T11:45:31;97355.75;;;10.62;68.42
216;BME280;64590;48.81286795;9.14184224;2023-01-08T11:51:31;97352.13;;;10.65;69.10
216;BME280;64590;48.81286795;9.14184224;2023-01-08T11:54:05;97343.72;;;10.41;69.97
216;BME280;64590;48.81286795;9.14184224;2023-01-08T11:56:45;97333.78;;;10.44;70.16
216;BME280;64590;48.81286795;9.14184224;2023-01-08T11:59:17;97334.59;;;10.41;70.09
216;BME280;64590;48.81286795;9.14184224;2023-01-08T12:01:56;97337.34;;;10.44;69.68
216;BME280;64590;48.81286795;9.14184224;2023-01-08T12:04:40;97328.19;;;10.47;69.70